createdAt,value
2022-08-04T00:01:52.421Z,4.07
2022-08-04T00:04:27.629Z,10.80
2022-08-04T00:07:05.710Z,8.65
2022-08-04T00:09:40.271Z,6.47
2022-08-04T00:12:09.327Z,7.45
2022-08-04T00:14:41.424Z,10.98
2022-08-04T00:17:10.179Z,12.68
2022-08-04T00:19:43.025Z,10.98
2022-08-04T00:22:13.112Z,10.68
2022-08-04T00:24:42.157Z,8.23
2022-08-04T00:27:11.102Z,11.88
2022-08-04T00:29:40.744Z,15.35
2022-08-04T00:32:10.122Z,8.35
2022-08-04T00:34:40.953Z,14.48
2022-08-04T00:37:09.971Z,8.57
2022-08-04T00:39:38.832Z,13.25
2022-08-04T00:42:49.339Z,12.10
2022-08-04T00:46:11.711Z,14.82
2022-08-04T00:49:01.371Z,5.55
2022-08-04T00:51:39.383Z,10.35
2022-08-04T00:54:13.932Z,12.82
2022-08-04T00:57:06.161Z,8.75
2022-08-04T00:59:46.327Z,9.55
2022-08-04T01:02:25.105Z,6.20
2022-08-04T01:05:03.918Z,10.57
2022-08-04T01:07:49.857Z,7.75
2022-08-04T01:10:25.330Z,9.77
2022-08-04T01:13:10.150Z,7.05
2022-08-04T01:15:56.417Z,11.68
2022-08-04T01:18:35.465Z,11.18
2022-08-04T01:21:16.151Z,19.13
2022-08-04T01:24:07.124Z,9.77
2022-08-04T01:26:57.747Z,11.13
2022-08-04T01:29:46.841Z,7.40
2022-08-04T01:32:25.569Z,11.05
2022-08-04T01:35:01.093Z,7.65
2022-08-04T01:37:38.642Z,9.25
2022-08-04T01:40:09.437Z,7.45
2022-08-04T01:42:38.517Z,14.63
2022-08-04T01:45:10.670Z,8.32
2022-08-04T01:47:43.208Z,19.00
2022-08-04T01:50:13.875Z,7.47
2022-08-04T01:52:47.583Z,15.40
2022-08-04T01:55:19.315Z,11.48
2022-08-04T01:57:49.445Z,9.18
2022-08-04T02:00:20.546Z,11.68
2022-08-04T02:02:49.373Z,6.40
2022-08-04T02:05:19.545Z,9.38
2022-08-04T02:08:06.189Z,11.07
2022-08-04T02:10:55.785Z,8.18
2022-08-04T02:13:28.901Z,20.45
2022-08-04T02:16:05.054Z,13.38
2022-08-04T02:18:35.475Z,8.57
2022-08-04T02:21:04.694Z,12.27
2022-08-04T02:23:37.089Z,11.45
2022-08-04T02:26:07.265Z,12.95
2022-08-04T02:28:48.337Z,10.60
2022-08-04T02:31:23.889Z,8.77
2022-08-04T02:34:02.805Z,6.65
2022-08-04T02:36:36.662Z,10.55
2022-08-04T02:39:07.089Z,9.40
2022-08-04T02:41:36.270Z,7.20
2022-08-04T02:44:06.472Z,6.57
2022-08-04T02:46:37.990Z,4.80
2022-08-04T02:49:07.641Z,9.10
2022-08-04T02:51:37.422Z,7.25
2022-08-04T02:54:07.636Z,6.43
2022-08-04T02:56:37.470Z,7.35
2022-08-04T02:59:08.461Z,10.88
2022-08-04T03:01:57.267Z,8.57
2022-08-04T03:04:45.956Z,11.00
2022-08-04T03:07:37.974Z,6.05
2022-08-04T03:10:39.535Z,9.98
2022-08-04T03:13:49.555Z,8.73
2022-08-04T03:16:50.053Z,7.57
2022-08-04T03:20:05.784Z,7.88
2022-08-04T03:23:12.022Z,9.35
2022-08-04T03:26:21.406Z,8.55
2022-08-04T03:29:11.212Z,7.30
2022-08-04T03:32:07.652Z,13.90
2022-08-04T03:34:48.200Z,11.15
2022-08-04T03:37:31.168Z,6.55
2022-08-04T03:40:31.324Z,5.63
2022-08-04T03:43:57.888Z,11.77
2022-08-04T03:46:57.753Z,4.95
2022-08-04T03:49:57.886Z,8.23
2022-08-04T03:53:00.966Z,3.65
2022-08-04T03:56:14.092Z,5.40
2022-08-04T03:58:54.499Z,9.23
2022-08-04T04:02:02.525Z,6.47
2022-08-04T04:04:44.055Z,14.95
2022-08-04T04:08:10.054Z,10.15
2022-08-04T04:11:11.695Z,8.18
2022-08-04T04:14:00.585Z,7.53
2022-08-04T04:16:39.845Z,8.80
2022-08-04T04:19:38.912Z,7.50
2022-08-04T04:22:33.144Z,9.80
2022-08-04T04:25:11.001Z,14.80
2022-08-04T04:27:52.902Z,6.00
2022-08-04T04:30:26.595Z,8.63
2022-08-04T04:33:07.752Z,7.00
2022-08-04T04:35:42.856Z,9.82
2022-08-04T04:38:41.562Z,8.45
2022-08-04T04:41:34.920Z,10.25
2022-08-04T04:44:30.204Z,6.68
2022-08-04T04:47:06.656Z,4.50
2022-08-04T04:49:38.714Z,6.18
2022-08-04T04:52:11.146Z,8.05
2022-08-04T04:54:42.412Z,5.55
2022-08-04T04:57:14.683Z,8.13
2022-08-04T04:59:50.522Z,10.13
2022-08-04T05:02:38.121Z,7.88
2022-08-04T05:05:42.025Z,9.93
2022-08-04T05:08:45.185Z,12.93
2022-08-04T05:11:37.159Z,7.95
2022-08-04T05:14:37.970Z,7.05
2022-08-04T05:17:04.483Z,11.65
2022-08-04T05:19:46.345Z,4.05
2022-08-04T05:22:19.716Z,9.55
2022-08-04T05:24:51.722Z,9.00
2022-08-04T05:27:23.862Z,9.02
2022-08-04T05:29:55.970Z,9.90
2022-08-04T05:32:30.610Z,6.82
2022-08-04T05:35:03.875Z,5.43
2022-08-04T05:37:33.205Z,7.38
2022-08-04T05:40:05.011Z,7.85
2022-08-04T05:42:34.606Z,3.95
2022-08-04T05:45:03.502Z,5.03
2022-08-04T05:47:34.464Z,9.60
2022-08-04T05:50:04.745Z,5.65
2022-08-04T05:52:35.429Z,11.32
2022-08-04T05:55:04.757Z,3.83
2022-08-04T05:57:33.712Z,5.85
2022-08-04T06:00:19.828Z,8.20
2022-08-04T06:02:55.866Z,5.43
2022-08-04T06:05:24.966Z,2.85
2022-08-04T06:08:12.692Z,7.13
2022-08-04T06:10:42.699Z,3.38
2022-08-04T06:13:48.996Z,4.18
2022-08-04T06:16:04.555Z,3.15
2022-08-04T06:20:02.307Z,7.38
2022-08-04T06:21:24.827Z,6.57
2022-08-04T06:24:02.411Z,5.95
2022-08-04T06:26:35.009Z,5.25
2022-08-04T06:29:04.900Z,5.18
2022-08-04T06:32:28.280Z,8.68
2022-08-04T06:34:36.387Z,6.63
2022-08-04T06:37:04.945Z,3.72
2022-08-04T06:39:34.213Z,8.95
2022-08-04T06:42:21.896Z,7.65
2022-08-04T06:44:52.458Z,3.83
2022-08-04T06:47:21.907Z,6.18
2022-08-04T06:51:31.258Z,5.80
2022-08-04T06:52:41.943Z,6.80
2022-08-04T06:55:10.840Z,5.65
2022-08-04T06:57:39.913Z,6.47
2022-08-04T07:00:12.113Z,5.28
2022-08-04T07:02:46.996Z,8.10
2022-08-04T07:05:16.815Z,4.30
2022-08-04T07:07:57.419Z,11.93
2022-08-04T07:10:27.627Z,4.20
2022-08-04T07:12:57.321Z,11.10
2022-08-04T07:15:26.389Z,11.70
2022-08-04T07:18:00.103Z,9.75
2022-08-04T07:20:35.678Z,5.80
2022-08-04T07:23:05.455Z,5.45
2022-08-04T07:25:59.422Z,3.17
2022-08-04T07:28:26.391Z,16.67
2022-08-04T07:30:55.679Z,7.22
2022-08-04T07:33:25.754Z,5.07
2022-08-04T07:36:05.091Z,4.15
2022-08-04T07:38:48.309Z,6.65
2022-08-04T07:41:39.339Z,5.20
2022-08-04T07:44:09.034Z,4.75
2022-08-04T07:46:37.883Z,4.97
2022-08-04T07:49:06.570Z,7.68
2022-08-04T07:51:38.057Z,6.53
2022-08-04T07:54:07.839Z,3.85
2022-08-04T07:56:39.408Z,5.00
2022-08-04T07:59:08.373Z,11.85
2022-08-04T08:01:37.444Z,9.43
2022-08-04T08:04:08.157Z,7.65
2022-08-04T08:06:43.119Z,4.28
2022-08-04T08:09:14.736Z,3.80
2022-08-04T08:12:36.981Z,10.73
2022-08-04T08:14:33.474Z,6.05
2022-08-04T08:17:02.884Z,14.00
2022-08-04T08:19:31.595Z,7.72
2022-08-04T08:22:02.245Z,8.13
2022-08-04T08:24:31.692Z,9.30
2022-08-04T08:27:00.966Z,10.70
2022-08-04T08:29:30.683Z,3.58
2022-08-04T08:32:05.392Z,7.35
2022-08-04T08:34:36.363Z,3.22
2022-08-04T08:37:11.021Z,5.65
2022-08-04T08:39:42.589Z,7.57
2022-08-04T08:42:27.722Z,4.65
2022-08-04T08:45:33.217Z,7.30
2022-08-04T08:48:23.221Z,9.50
2022-08-04T08:51:11.784Z,7.18
2022-08-04T08:54:00.328Z,12.13
2022-08-04T08:56:35.166Z,4.63
2022-08-04T08:59:26.087Z,2.38
2022-08-04T09:02:09.268Z,2.83
2022-08-04T09:04:56.850Z,2.40
2022-08-04T09:07:45.901Z,3.10
2022-08-04T09:10:18.817Z,10.98
2022-08-04T09:12:52.796Z,6.88
2022-08-04T09:15:29.673Z,8.88
2022-08-04T09:18:03.509Z,1.88
2022-08-04T09:20:39.306Z,9.82
2022-08-04T09:23:20.153Z,3.45
2022-08-04T09:25:58.981Z,2.38
2022-08-04T09:28:52.239Z,7.20
2022-08-04T09:31:20.885Z,3.40
2022-08-04T09:33:55.545Z,6.18
2022-08-04T09:36:30.581Z,4.38
2022-08-04T09:39:06.381Z,4.43
2022-08-04T09:41:49.161Z,3.72
2022-08-04T09:44:49.271Z,2.58
2022-08-04T09:47:20.592Z,1.55
2022-08-04T09:49:51.846Z,2.65
2022-08-04T09:52:28.748Z,1.70
2022-08-04T09:55:06.059Z,4.15
2022-08-04T09:57:47.196Z,2.55
2022-08-04T10:00:17.026Z,1.55
2022-08-04T10:02:48.699Z,5.72
2022-08-04T10:05:21.894Z,3.38
2022-08-04T10:08:16.653Z,7.03
2022-08-04T10:10:53.293Z,4.65
2022-08-04T10:13:32.512Z,5.07
2022-08-04T10:16:13.291Z,16.55
2022-08-04T10:18:50.819Z,10.02
2022-08-04T10:21:24.134Z,11.68
2022-08-04T10:24:13.488Z,2.03
2022-08-04T10:26:48.727Z,1.85
2022-08-04T10:29:20.858Z,2.78
2022-08-04T10:31:56.741Z,1.52
2022-08-04T10:34:29.257Z,2.25
2022-08-04T10:37:06.019Z,8.00
2022-08-04T10:39:43.307Z,2.10
2022-08-04T10:42:20.920Z,6.35
2022-08-04T10:44:57.784Z,2.53
2022-08-04T10:47:31.812Z,4.30
2022-08-04T10:50:02.663Z,3.85
2022-08-04T10:52:35.686Z,2.30
2022-08-04T10:55:08.596Z,6.82
2022-08-04T10:57:40.611Z,4.53
2022-08-04T11:00:14.800Z,2.97
2022-08-04T11:02:47.962Z,3.08
2022-08-04T11:05:26.298Z,2.88
2022-08-04T11:08:01.177Z,2.25
2022-08-04T11:10:32.453Z,2.92
2022-08-04T11:13:06.044Z,3.70
2022-08-04T11:15:48.052Z,4.07
2022-08-04T11:18:25.662Z,8.27
2022-08-04T11:20:57.918Z,7.22
2022-08-04T11:23:29.919Z,4.35
2022-08-04T11:26:00.631Z,3.03
2022-08-04T11:28:39.477Z,1.73
2022-08-04T11:31:15.498Z,2.38
2022-08-04T11:33:48.893Z,7.15
2022-08-04T11:36:23.636Z,3.53
2022-08-04T11:38:58.022Z,2.47
2022-08-04T11:41:39.187Z,2.90
2022-08-04T11:44:12.581Z,4.00
2022-08-04T11:46:47.473Z,4.20
2022-08-04T11:49:23.041Z,10.70
2022-08-04T11:51:52.615Z,5.53
2022-08-04T11:54:22.119Z,2.33
2022-08-04T11:56:50.698Z,1.25
2022-08-04T11:59:19.556Z,1.48
2022-08-04T12:02:03.827Z,6.82
2022-08-04T12:04:39.134Z,4.20
2022-08-04T12:07:35.404Z,2.15
2022-08-04T12:10:42.288Z,1.70
2022-08-04T12:13:19.643Z,6.75
2022-08-04T12:15:54.305Z,3.88
2022-08-04T12:18:26.196Z,5.85
2022-08-04T12:20:59.918Z,4.07
2022-08-04T12:23:32.133Z,2.53
2022-08-04T12:26:06.680Z,5.07
2022-08-04T12:29:08.095Z,3.97
2022-08-04T12:31:29.045Z,3.10
2022-08-04T12:34:06.343Z,4.40
2022-08-04T12:36:43.416Z,3.42
2022-08-04T12:39:14.167Z,9.77
2022-08-04T12:41:47.863Z,6.88
2022-08-04T12:44:36.364Z,1.88
2022-08-04T12:47:26.718Z,3.20
2022-08-04T12:50:02.123Z,2.55
2022-08-04T12:53:01.638Z,1.05
2022-08-04T12:55:27.156Z,9.60
2022-08-04T12:57:56.423Z,3.53
2022-08-04T13:00:30.485Z,3.10
2022-08-04T13:03:09.679Z,6.65
2022-08-04T13:05:41.941Z,5.40
2022-08-04T13:08:11.793Z,4.35
2022-08-04T13:10:42.406Z,4.68
2022-08-04T13:13:16.813Z,1.65
2022-08-04T13:15:47.411Z,3.70
2022-08-04T13:18:29.542Z,3.40
2022-08-04T13:21:20.839Z,7.20
2022-08-04T13:26:55.412Z,6.55
2022-08-04T13:29:59.973Z,2.40
2022-08-04T13:30:25.147Z,0.95
2022-08-04T13:32:18.567Z,3.17
2022-08-04T13:34:52.696Z,3.95
2022-08-04T13:37:27.560Z,2.50
2022-08-04T13:39:57.426Z,6.88
2022-08-04T13:42:26.899Z,3.85
2022-08-04T13:44:57.729Z,3.10
2022-08-04T13:47:29.889Z,5.22
2022-08-04T13:50:16.822Z,1.55
2022-08-04T13:52:47.106Z,1.85
2022-08-04T13:55:24.709Z,6.90
2022-08-04T13:57:57.888Z,3.63
2022-08-04T14:00:33.381Z,1.15
2022-08-04T14:03:21.757Z,1.80
2022-08-04T14:06:24.985Z,0.98
2022-08-04T14:08:57.665Z,1.92
2022-08-04T14:12:10.616Z,3.30
2022-08-04T14:14:25.635Z,1.98
2022-08-04T14:16:59.278Z,1.20
2022-08-04T14:19:35.840Z,4.03
2022-08-04T14:22:04.917Z,1.90
2022-08-04T14:24:34.622Z,5.45
2022-08-04T14:27:03.338Z,1.20
2022-08-04T14:29:39.177Z,1.48
2022-08-04T14:32:14.210Z,2.65
2022-08-04T14:34:45.901Z,2.97
2022-08-04T14:37:19.361Z,1.83
2022-08-04T14:40:07.989Z,2.15
2022-08-04T14:42:55.264Z,5.65
2022-08-04T14:45:32.786Z,2.72
2022-08-04T14:48:02.187Z,7.32
2022-08-04T14:50:38.927Z,5.75
2022-08-04T14:53:09.484Z,4.55
2022-08-04T14:55:40.006Z,5.22
2022-08-04T14:58:36.947Z,7.45
2022-08-04T15:00:59.051Z,12.48
2022-08-04T15:03:28.182Z,3.85
2022-08-04T15:06:05.339Z,9.05
2022-08-04T15:08:35.900Z,7.15
2022-08-04T15:11:05.892Z,7.63
2022-08-04T15:13:34.879Z,5.22
2022-08-04T15:16:07.300Z,6.97
2022-08-04T15:18:38.862Z,10.38
2022-08-04T15:21:08.323Z,6.43
2022-08-04T15:23:39.447Z,11.05
2022-08-04T15:26:13.430Z,13.82
2022-08-04T15:28:50.385Z,14.27
2022-08-04T15:32:05.470Z,13.55
2022-08-04T15:34:09.540Z,7.55
2022-08-04T15:36:42.364Z,14.52
2022-08-04T15:39:20.714Z,6.07
2022-08-04T15:41:57.726Z,11.77
2022-08-04T15:45:04.360Z,4.35
2022-08-04T15:47:32.958Z,12.93
2022-08-04T15:50:06.530Z,8.60
2022-08-04T15:53:10.370Z,20.23
2022-08-04T15:55:42.114Z,10.63
2022-08-04T15:58:14.128Z,10.13
2022-08-04T16:01:17.900Z,8.63
2022-08-04T16:03:59.052Z,6.82
2022-08-04T16:06:45.840Z,10.93
2022-08-04T16:09:46.165Z,11.02
2022-08-04T16:12:54.411Z,12.05
2022-08-04T16:15:46.815Z,17.85
2022-08-04T16:18:36.042Z,9.00
2022-08-04T16:21:06.637Z,10.65
2022-08-04T16:24:06.852Z,11.32
2022-08-04T16:26:54.694Z,10.60
2022-08-04T16:29:43.766Z,11.85
2022-08-04T16:32:19.538Z,7.00
2022-08-04T16:34:56.988Z,9.98
2022-08-04T16:37:30.609Z,6.88
2022-08-04T16:40:35.692Z,10.32
2022-08-04T16:43:08.429Z,8.57
2022-08-04T16:45:58.827Z,9.05
2022-08-04T16:48:29.554Z,8.57
2022-08-04T16:51:03.215Z,12.93
2022-08-04T16:53:57.987Z,9.13
2022-08-04T16:56:33.396Z,8.70
2022-08-04T16:59:09.116Z,8.55
2022-08-04T17:01:37.859Z,13.82
2022-08-04T17:04:08.112Z,12.50
2022-08-04T17:06:38.586Z,10.88
2022-08-04T17:09:09.186Z,13.13
2022-08-04T17:11:37.770Z,13.93
2022-08-04T17:14:06.915Z,9.07
2022-08-04T17:16:37.967Z,11.35
2022-08-04T17:19:25.051Z,13.48
2022-08-04T17:22:02.307Z,15.60
2022-08-04T17:24:32.464Z,13.13
2022-08-04T17:27:01.072Z,15.13
2022-08-04T17:32:20.786Z,16.58
2022-08-04T17:34:52.173Z,9.50
2022-08-04T17:37:40.996Z,12.55
2022-08-04T17:40:13.168Z,18.92
2022-08-04T17:42:44.983Z,7.57
2022-08-04T17:45:51.301Z,6.70
2022-08-04T17:48:24.841Z,7.25
2022-08-04T17:50:55.065Z,10.98
2022-08-04T17:54:01.513Z,10.25
2022-08-04T17:56:31.539Z,8.32
2022-08-04T17:59:52.344Z,5.28
2022-08-04T18:02:09.474Z,6.32
2022-08-04T18:04:41.120Z,11.25
2022-08-04T18:08:45.775Z,7.70
2022-08-04T18:10:55.773Z,7.50
2022-08-04T18:13:26.307Z,10.02
2022-08-04T18:16:03.367Z,15.10
2022-08-04T18:18:32.313Z,10.73
2022-08-04T18:21:03.471Z,8.80
2022-08-04T18:23:34.647Z,12.25
2022-08-04T18:26:12.045Z,10.25
2022-08-04T18:28:43.034Z,4.03
2022-08-04T18:31:11.531Z,10.40
2022-08-04T18:33:57.259Z,6.82
2022-08-04T18:36:35.869Z,8.63
2022-08-04T18:39:13.082Z,7.32
2022-08-04T18:42:01.082Z,7.63
2022-08-04T18:44:31.495Z,6.70
2022-08-04T18:47:22.440Z,8.10
2022-08-04T18:51:01.239Z,10.43
2022-08-04T18:52:45.286Z,2.78
2022-08-04T18:55:56.208Z,4.93
2022-08-04T18:58:06.307Z,11.27
2022-08-04T19:00:37.238Z,5.28
2022-08-04T19:03:16.590Z,5.72
2022-08-04T19:06:02.772Z,4.97
2022-08-04T19:08:33.381Z,6.22
2022-08-04T19:11:36.833Z,6.18
2022-08-04T19:16:45.991Z,13.68
2022-08-04T19:19:18.212Z,4.72
2022-08-04T19:22:00.953Z,5.78
2022-08-04T19:24:34.415Z,6.30
2022-08-04T19:27:08.222Z,6.45
2022-08-04T19:29:41.399Z,5.80
2022-08-04T19:32:13.917Z,7.25
2022-08-04T19:34:46.442Z,4.75
2022-08-04T19:37:57.206Z,6.47
2022-08-04T19:40:06.389Z,4.05
2022-08-04T19:42:36.234Z,7.07
2022-08-04T19:45:05.508Z,8.02
2022-08-04T19:48:11.186Z,7.97
2022-08-04T19:50:23.867Z,8.30
2022-08-04T19:52:53.017Z,6.38
2022-08-04T19:55:36.743Z,11.00
2022-08-04T19:58:09.031Z,3.38
2022-08-04T20:00:38.632Z,5.78
2022-08-04T20:03:11.378Z,7.32
2022-08-04T20:05:53.418Z,8.57
2022-08-04T20:08:24.926Z,4.68
2022-08-04T20:10:54.664Z,9.60
2022-08-04T20:13:36.905Z,4.30
2022-08-04T20:16:28.776Z,5.90
2022-08-04T20:18:59.551Z,8.57
2022-08-04T20:21:55.602Z,5.28
2022-08-04T20:24:38.876Z,8.60
2022-08-04T20:27:15.076Z,11.38
2022-08-04T20:29:55.539Z,5.10
2022-08-04T20:32:25.610Z,7.03
2022-08-04T20:34:55.458Z,4.55
2022-08-04T20:37:25.972Z,4.70
2022-08-04T20:40:14.633Z,3.45
2022-08-04T20:42:46.162Z,8.02
2022-08-04T20:45:16.238Z,5.72
2022-08-04T20:47:54.216Z,5.07
2022-08-04T20:50:30.317Z,5.22
2022-08-04T20:52:59.370Z,6.43
2022-08-04T20:55:29.632Z,3.53
2022-08-04T20:58:03.039Z,9.35
2022-08-04T21:00:35.184Z,7.95
2022-08-04T21:03:07.438Z,4.40
2022-08-04T21:05:36.789Z,3.20
2022-08-04T21:08:10.266Z,4.22
2022-08-04T21:10:40.176Z,9.32
2022-08-04T21:13:17.892Z,10.43
2022-08-04T21:15:57.757Z,7.93
2022-08-04T21:18:29.423Z,6.15
2022-08-04T21:20:59.501Z,6.38
2022-08-04T21:23:33.885Z,10.48
2022-08-04T21:26:03.543Z,5.38
2022-08-04T21:28:32.614Z,13.90
2022-08-04T21:31:11.112Z,9.13
2022-08-04T21:33:52.822Z,9.73
2022-08-04T21:36:21.244Z,11.68
2022-08-04T21:38:51.146Z,12.05
2022-08-04T21:41:26.885Z,14.75
2022-08-04T21:43:58.847Z,10.02
2022-08-04T21:46:29.988Z,13.75
2022-08-04T21:48:59.435Z,12.40
2022-08-04T21:51:59.871Z,13.48
2022-08-04T21:54:18.895Z,10.73
2022-08-04T21:56:50.675Z,19.08
2022-08-04T21:59:31.468Z,15.68
2022-08-04T22:02:02.906Z,12.60
2022-08-04T22:04:31.546Z,15.18
2022-08-04T22:07:02.661Z,17.58
2022-08-04T22:09:38.503Z,11.77
2022-08-04T22:12:11.851Z,15.32
2022-08-04T22:14:50.369Z,13.38
2022-08-04T22:17:20.529Z,21.63
2022-08-04T22:19:55.585Z,15.90
2022-08-04T22:22:29.410Z,17.27
2022-08-04T22:25:01.735Z,20.20
2022-08-04T22:27:55.104Z,15.18
2022-08-04T22:30:36.877Z,15.68
2022-08-04T22:33:08.977Z,16.80
2022-08-04T22:35:44.261Z,13.00
2022-08-04T22:38:24.458Z,16.55
2022-08-04T22:41:08.247Z,15.38
2022-08-04T22:43:37.715Z,16.85
2022-08-04T22:46:09.278Z,20.00
2022-08-04T22:48:43.112Z,15.98
2022-08-04T22:51:12.729Z,19.20
2022-08-04T22:53:41.827Z,16.70
2022-08-04T22:56:38.178Z,15.77
2022-08-04T22:59:06.468Z,15.73
2022-08-04T23:01:58.917Z,17.35
2022-08-04T23:04:29.451Z,17.27
2022-08-04T23:06:58.396Z,24.48
2022-08-04T23:09:51.082Z,19.10
2022-08-04T23:12:25.364Z,18.70
2022-08-04T23:14:55.317Z,22.67
2022-08-04T23:17:24.364Z,16.05
2022-08-04T23:19:58.208Z,17.23
2022-08-04T23:22:41.993Z,22.08
2022-08-04T23:25:15.874Z,21.60
2022-08-04T23:27:50.375Z,19.65
2022-08-04T23:30:21.965Z,19.40
2022-08-04T23:32:53.856Z,25.88
2022-08-04T23:35:24.213Z,17.85
2022-08-04T23:37:56.735Z,21.00
2022-08-04T23:40:33.096Z,20.40
2022-08-04T23:43:17.425Z,19.20
2022-08-04T23:46:07.700Z,15.05
2022-08-04T23:48:35.502Z,17.58
2022-08-04T23:51:14.116Z,16.85
2022-08-04T23:54:03.514Z,15.63
2022-08-04T23:56:34.075Z,28.40
2022-08-04T23:59:03.764Z,16.65
